createdAt,value
2019-02-25T00:00:56.161Z,3.48
2019-02-25T00:03:22.856Z,3.51
2019-02-25T00:05:49.422Z,3.52
2019-02-25T00:08:16.032Z,3.64
2019-02-25T00:10:42.576Z,3.56
2019-02-25T00:13:09.214Z,3.39
2019-02-25T00:15:35.788Z,3.44
2019-02-25T00:18:02.361Z,3.35
2019-02-25T00:20:28.899Z,3.14
2019-02-25T00:22:55.480Z,2.98
2019-02-25T00:25:22.028Z,2.88
2019-02-25T00:27:48.596Z,2.96
2019-02-25T00:30:15.171Z,3.10
2019-02-25T00:32:41.741Z,3.29
2019-02-25T00:35:08.301Z,3.13
2019-02-25T00:37:34.880Z,2.99
2019-02-25T00:40:01.511Z,2.82
2019-02-25T00:42:28.086Z,2.74
2019-02-25T00:44:54.653Z,2.89
2019-02-25T00:47:21.250Z,3.22
2019-02-25T00:49:47.813Z,3.03
2019-02-25T00:52:14.466Z,3.10
2019-02-25T00:54:41.033Z,3.10
2019-02-25T00:57:09.058Z,3.07
2019-02-25T00:59:35.758Z,3.01
2019-02-25T01:02:02.340Z,3.28
2019-02-25T01:04:28.911Z,3.06
2019-02-25T01:06:55.447Z,2.84
2019-02-25T01:09:22.028Z,2.68
2019-02-25T01:11:48.567Z,2.55
2019-02-25T01:14:15.127Z,2.77
2019-02-25T01:16:41.774Z,3.06
2019-02-25T01:19:08.344Z,2.96
2019-02-25T01:21:34.904Z,2.62
2019-02-25T01:24:01.463Z,2.37
2019-02-25T01:26:28.055Z,2.19
2019-02-25T01:28:54.626Z,2.16
2019-02-25T01:31:21.244Z,2.07
2019-02-25T01:33:47.819Z,2.30
2019-02-25T01:36:14.359Z,2.23
2019-02-25T01:38:40.934Z,2.24
2019-02-25T01:41:07.486Z,2.13
2019-02-25T01:43:34.072Z,2.24
2019-02-25T01:46:00.618Z,2.23
2019-02-25T01:48:27.155Z,2.20
2019-02-25T01:50:53.718Z,2.29
2019-02-25T01:53:20.268Z,2.19
2019-02-25T01:55:46.845Z,2.10
2019-02-25T01:58:13.387Z,2.11
2019-02-25T02:00:39.950Z,2.19
2019-02-25T02:03:06.530Z,2.30
2019-02-25T02:05:33.097Z,2.46
2019-02-25T02:07:59.675Z,2.51
2019-02-25T02:10:26.257Z,2.47
2019-02-25T02:12:52.815Z,2.39
2019-02-25T02:15:19.461Z,2.34
2019-02-25T02:17:46.016Z,2.25
2019-02-25T02:20:16.829Z,2.37
2019-02-25T02:22:43.053Z,2.59
2019-02-25T02:25:09.967Z,2.35
2019-02-25T02:27:36.705Z,2.03
2019-02-25T02:30:09.236Z,2.04
2019-02-25T02:32:35.822Z,1.78
2019-02-25T02:35:07.243Z,1.62
2019-02-25T02:37:36.535Z,1.46
2019-02-25T02:40:06.435Z,1.43
2019-02-25T02:42:35.814Z,1.60
2019-02-25T02:45:19.438Z,1.51
2019-02-25T02:47:58.498Z,1.55
2019-02-25T02:50:25.783Z,1.45
2019-02-25T02:52:52.760Z,1.85
2019-02-25T02:55:19.691Z,1.69
2019-02-25T02:57:47.629Z,1.59
2019-02-25T03:00:18.387Z,1.58
2019-02-25T03:02:46.510Z,1.34
2019-02-25T03:05:17.365Z,-1.34
2019-02-25T03:07:43.861Z,0.98
2019-02-25T03:10:11.789Z,1.16
2019-02-25T03:12:38.700Z,0.99
2019-02-25T03:15:10.738Z,1.30
2019-02-25T03:17:38.121Z,1.07
2019-02-25T03:20:08.996Z,0.91
2019-02-25T03:22:36.343Z,0.83
2019-02-25T03:25:06.581Z,0.77
2019-02-25T03:27:34.339Z,0.69
2019-02-25T03:30:09.466Z,0.85
2019-02-25T03:32:36.554Z,1.18
2019-02-25T03:35:04.463Z,1.04
2019-02-25T03:37:31.539Z,0.92
2019-02-25T03:39:58.417Z,0.82
2019-02-25T03:42:26.627Z,0.75
2019-02-25T03:44:54.464Z,0.64
2019-02-25T03:47:31.132Z,0.54
2019-02-25T03:49:57.847Z,0.48
2019-02-25T03:52:24.832Z,0.44
2019-02-25T03:54:51.726Z,0.48
2019-02-25T03:57:20.905Z,0.48
2019-02-25T03:59:48.273Z,0.44
2019-02-25T04:02:15.634Z,0.40
2019-02-25T04:04:52.384Z,0.40
2019-02-25T04:07:21.128Z,0.35
2019-02-25T04:09:48.267Z,0.37
2019-02-25T04:12:16.014Z,0.72
2019-02-25T04:14:45.517Z,0.81
2019-02-25T04:17:14.369Z,0.71
2019-02-25T04:19:41.572Z,0.53
2019-02-25T04:22:08.509Z,0.46
2019-02-25T04:24:36.147Z,0.41
2019-02-25T04:27:05.948Z,0.36
2019-02-25T04:29:33.162Z,0.28
2019-02-25T04:32:02.485Z,0.34
2019-02-25T04:34:29.286Z,0.25
2019-02-25T04:36:57.534Z,0.26
2019-02-25T04:39:28.298Z,0.19
2019-02-25T04:41:56.012Z,0.15
2019-02-25T04:44:24.012Z,0.10
2019-02-25T04:46:54.153Z,0.13
2019-02-25T04:49:21.281Z,0.13
2019-02-25T04:51:48.546Z,0.37
2019-02-25T04:54:15.618Z,0.52
2019-02-25T04:56:42.517Z,0.48
2019-02-25T04:59:09.638Z,0.36
2019-02-25T05:01:36.574Z,0.24
2019-02-25T05:04:03.454Z,0.16
2019-02-25T05:06:33.332Z,0.19
2019-02-25T05:09:00.690Z,0.34
2019-02-25T05:11:31.677Z,0.46
2019-02-25T05:14:03.007Z,0.42
2019-02-25T05:16:29.938Z,0.49
2019-02-25T05:18:58.154Z,0.54
2019-02-25T05:21:25.062Z,0.80
2019-02-25T05:23:52.166Z,0.66
2019-02-25T05:26:18.981Z,0.53
2019-02-25T05:28:45.993Z,0.42
2019-02-25T05:31:12.827Z,0.30
2019-02-25T05:33:40.106Z,0.15
2019-02-25T05:36:06.997Z,0.19
2019-02-25T05:38:34.266Z,-2.59
2019-02-25T05:41:01.239Z,-0.01
2019-02-25T05:43:28.231Z,-0.03
2019-02-25T05:45:55.539Z,-0.05
2019-02-25T05:48:22.408Z,0.09
2019-02-25T05:50:49.686Z,0.37
2019-02-25T05:53:16.966Z,0.55
2019-02-25T05:55:44.278Z,1.07
2019-02-25T05:58:12.234Z,0.82
2019-02-25T06:00:39.440Z,0.62
2019-02-25T06:03:06.669Z,0.49
2019-02-25T06:05:33.884Z,0.78
2019-02-25T06:08:04.726Z,0.60
2019-02-25T06:10:31.647Z,0.32
2019-02-25T06:12:58.545Z,0.13
2019-02-25T06:15:25.414Z,0.05
2019-02-25T06:17:52.340Z,0.12
2019-02-25T06:20:19.695Z,0.16
2019-02-25T06:22:46.896Z,0.19
2019-02-25T06:25:13.787Z,0.24
2019-02-25T06:27:40.712Z,0.10
2019-02-25T06:30:10.196Z,0.06
2019-02-25T06:32:37.107Z,0.05
2019-02-25T06:35:04.786Z,0.07
2019-02-25T06:37:31.985Z,0.17
2019-02-25T06:39:59.200Z,0.55
2019-02-25T06:42:26.135Z,0.78
2019-02-25T06:44:52.982Z,0.72
2019-02-25T06:47:19.875Z,0.66
2019-02-25T06:49:46.715Z,0.53
2019-02-25T06:52:13.571Z,0.46
2019-02-25T06:54:40.430Z,0.63
2019-02-25T06:57:07.298Z,0.58
2019-02-25T06:59:34.133Z,0.58
2019-02-25T07:02:01.336Z,0.66
2019-02-25T07:04:42.469Z,0.73
2019-02-25T07:07:12.754Z,1.16
2019-02-25T07:10:03.428Z,1.31
2019-02-25T07:12:43.310Z,1.58
2019-02-25T07:15:32.307Z,1.58
2019-02-25T07:18:14.852Z,1.47
2019-02-25T07:20:56.907Z,1.44
2019-02-25T07:24:01.626Z,1.63
2019-02-25T07:27:00.227Z,1.56
2019-02-25T07:29:46.466Z,1.55
2019-02-25T07:32:33.954Z,1.61
2019-02-25T07:35:27.714Z,1.72
2019-02-25T07:38:10.988Z,1.94
2019-02-25T07:41:05.013Z,2.26
2019-02-25T07:43:48.969Z,2.52
2019-02-25T07:46:25.212Z,2.60
2019-02-25T07:49:01.307Z,2.50
2019-02-25T07:51:53.697Z,2.70
2019-02-25T07:54:26.934Z,2.73
2019-02-25T07:57:12.604Z,2.90
2019-02-25T07:59:58.809Z,3.21
2019-02-25T08:02:36.614Z,3.81
2019-02-25T08:05:17.685Z,4.68
2019-02-25T08:08:18.615Z,5.99
2019-02-25T08:11:12.240Z,8.30
2019-02-25T08:13:57.000Z,11.26
2019-02-25T08:16:42.623Z,11.51
2019-02-25T08:19:15.324Z,10.87
2019-02-25T08:22:01.534Z,10.46
2019-02-25T08:24:37.789Z,12.57
2019-02-25T08:27:11.460Z,15.66
2019-02-25T08:30:00.509Z,16.46
2019-02-25T08:32:46.217Z,16.02
2019-02-25T08:36:18.199Z,16.63
2019-02-25T08:39:04.900Z,17.17
2019-02-25T08:41:36.748Z,18.96
2019-02-25T08:44:32.957Z,21.27
2019-02-25T08:47:13.100Z,23.62
2019-02-25T08:49:51.068Z,24.83
2019-02-25T08:52:17.620Z,25.66
2019-02-25T08:54:44.221Z,27.02
2019-02-25T08:57:11.781Z,27.58
2019-02-25T08:59:38.352Z,28.21
2019-02-25T09:02:04.903Z,29.30
2019-02-25T09:04:31.473Z,28.90
2019-02-25T09:06:58.386Z,29.29
2019-02-25T09:09:25.257Z,29.20
2019-02-25T09:11:51.830Z,29.39
2019-02-25T09:14:19.420Z,30.38
2019-02-25T09:16:46.232Z,31.59
2019-02-25T09:19:12.790Z,33.20
2019-02-25T09:21:39.728Z,34.15
2019-02-25T09:24:06.277Z,33.40
2019-02-25T09:26:32.839Z,32.32
2019-02-25T09:28:59.407Z,32.77
2019-02-25T09:31:25.993Z,33.35
2019-02-25T09:33:52.904Z,33.06
2019-02-25T09:36:19.535Z,32.13
2019-02-25T09:38:46.770Z,29.07
2019-02-25T09:41:13.437Z,29.73
2019-02-25T09:43:39.982Z,27.34
2019-02-25T09:46:06.573Z,25.33
2019-02-25T09:48:33.127Z,24.76
2019-02-25T09:50:59.719Z,22.70
2019-02-25T09:53:26.726Z,21.32
2019-02-25T09:55:53.318Z,23.32
2019-02-25T09:58:19.900Z,24.86
2019-02-25T10:00:46.505Z,28.21
2019-02-25T10:03:15.166Z,30.71
2019-02-25T10:05:41.706Z,31.94
2019-02-25T10:08:08.260Z,33.14
2019-02-25T10:10:34.885Z,32.26
2019-02-25T10:13:01.731Z,31.61
2019-02-25T10:15:28.571Z,32.52
2019-02-25T10:17:55.151Z,35.06
2019-02-25T10:20:23.147Z,35.56
2019-02-25T10:22:50.046Z,36.81
2019-02-25T10:25:16.619Z,37.28
2019-02-25T10:27:43.190Z,37.22
2019-02-25T10:30:10.353Z,36.78
2019-02-25T10:32:36.930Z,34.77
2019-02-25T10:35:04.562Z,29.87
2019-02-25T10:37:31.141Z,25.57
2019-02-25T10:39:57.745Z,25.57
2019-02-25T10:42:24.314Z,29.02
2019-02-25T10:44:50.858Z,29.05
2019-02-25T10:47:19.882Z,26.64
2019-02-25T10:49:46.241Z,28.17
2019-02-25T10:52:13.420Z,27.68
2019-02-25T10:54:41.278Z,32.29
2019-02-25T10:57:14.726Z,33.44
2019-02-25T10:59:41.554Z,33.91
2019-02-25T11:02:09.094Z,36.25
2019-02-25T11:04:36.719Z,34.43
2019-02-25T11:07:05.205Z,35.84
2019-02-25T11:09:45.672Z,36.41
2019-02-25T11:12:12.317Z,35.64
2019-02-25T11:14:40.933Z,35.22
2019-02-25T11:17:07.356Z,36.06
2019-02-25T11:19:33.900Z,38.40
2019-02-25T11:22:00.496Z,37.78
2019-02-25T11:24:27.084Z,38.49
2019-02-25T11:26:53.656Z,34.41
2019-02-25T11:29:24.575Z,36.61
2019-02-25T11:31:56.566Z,37.20
2019-02-25T11:34:24.675Z,39.17
2019-02-25T11:36:54.446Z,39.58
2019-02-25T11:39:20.406Z,38.97
2019-02-25T11:41:46.977Z,37.59
2019-02-25T11:44:14.311Z,37.80
2019-02-25T11:46:41.276Z,32.15
2019-02-25T11:49:08.354Z,30.58
2019-02-25T11:51:34.921Z,31.11
2019-02-25T11:54:01.474Z,26.51
2019-02-25T11:56:28.098Z,31.37
2019-02-25T11:58:54.704Z,31.37
2019-02-25T12:01:21.272Z,32.36
2019-02-25T12:03:47.851Z,34.13
2019-02-25T12:06:14.400Z,32.11
2019-02-25T12:08:40.969Z,33.25
2019-02-25T12:11:08.735Z,29.61
2019-02-25T12:13:35.487Z,29.36
2019-02-25T12:16:02.160Z,33.34
2019-02-25T12:18:28.738Z,30.83
2019-02-25T12:20:55.293Z,34.23
2019-02-25T12:23:21.860Z,34.02
2019-02-25T12:25:48.598Z,32.57
2019-02-25T12:28:15.203Z,29.02
2019-02-25T12:30:41.774Z,29.05
2019-02-25T12:33:08.368Z,30.20
2019-02-25T12:35:34.921Z,29.74
2019-02-25T12:38:01.530Z,32.04
2019-02-25T12:40:28.103Z,35.19
2019-02-25T12:42:54.721Z,28.83
2019-02-25T12:45:21.259Z,29.52
2019-02-25T12:47:47.829Z,28.96
2019-02-25T12:50:14.433Z,29.71
2019-02-25T12:52:41.301Z,32.08
2019-02-25T12:55:08.919Z,33.68
2019-02-25T12:57:35.504Z,34.13
2019-02-25T13:00:02.166Z,31.18
2019-02-25T13:02:28.750Z,32.30
2019-02-25T13:04:55.321Z,30.88
2019-02-25T13:07:21.870Z,33.57
2019-02-25T13:09:48.427Z,34.57
2019-02-25T13:12:14.982Z,33.59
2019-02-25T13:14:41.577Z,35.13
2019-02-25T13:17:08.129Z,32.87
2019-02-25T13:19:34.707Z,30.60
2019-02-25T13:22:01.632Z,30.34
2019-02-25T13:24:30.043Z,27.79
2019-02-25T13:26:56.660Z,28.66
2019-02-25T13:29:23.284Z,29.90
2019-02-25T13:31:50.181Z,29.58
2019-02-25T13:34:16.807Z,30.06
2019-02-25T13:36:43.365Z,32.42
2019-02-25T13:39:09.950Z,34.29
2019-02-25T13:41:36.526Z,35.10
2019-02-25T13:44:03.215Z,35.58
2019-02-25T13:46:29.758Z,37.81
2019-02-25T13:48:57.531Z,38.68
2019-02-25T13:51:24.285Z,39.46
2019-02-25T13:53:50.829Z,35.68
2019-02-25T13:56:17.414Z,34.55
2019-02-25T13:58:43.978Z,33.78
2019-02-25T14:01:10.543Z,35.60
2019-02-25T14:03:37.114Z,37.26
2019-02-25T14:06:03.728Z,36.12
2019-02-25T14:08:30.307Z,38.02
2019-02-25T14:10:57.117Z,36.15
2019-02-25T14:13:23.667Z,30.15
2019-02-25T14:15:50.260Z,29.70
2019-02-25T14:18:16.830Z,29.70
2019-02-25T14:20:43.417Z,28.15
2019-02-25T14:23:09.995Z,28.09
2019-02-25T14:25:38.403Z,28.44
2019-02-25T14:28:07.918Z,30.46
2019-02-25T14:30:34.026Z,32.27
2019-02-25T14:33:00.605Z,33.98
2019-02-25T14:35:28.528Z,34.37
2019-02-25T14:37:59.094Z,32.47
2019-02-25T14:40:26.236Z,31.10
2019-02-25T14:42:54.688Z,26.26
2019-02-25T14:45:21.954Z,26.86
2019-02-25T14:47:52.665Z,27.34
2019-02-25T14:50:18.287Z,28.31
2019-02-25T14:52:44.844Z,28.49
2019-02-25T14:55:13.163Z,28.70
2019-02-25T14:57:40.851Z,29.61
2019-02-25T15:00:11.194Z,30.09
2019-02-25T15:02:38.985Z,30.47
2019-02-25T15:05:06.137Z,30.67
2019-02-25T15:07:33.390Z,30.32
2019-02-25T15:10:01.884Z,30.98
2019-02-25T15:12:32.091Z,30.91
2019-02-25T15:15:00.197Z,29.84
2019-02-25T15:17:27.357Z,30.09
2019-02-25T15:19:53.908Z,30.53
2019-02-25T15:22:20.490Z,29.91
2019-02-25T15:24:48.269Z,30.51
2019-02-25T15:27:16.300Z,30.43
2019-02-25T15:29:44.709Z,29.97
2019-02-25T15:32:11.448Z,29.52
2019-02-25T15:34:37.985Z,29.59
2019-02-25T15:37:05.277Z,29.77
2019-02-25T15:39:33.109Z,28.29
2019-02-25T15:41:59.691Z,26.89
2019-02-25T15:44:28.311Z,24.70
2019-02-25T15:46:57.873Z,24.59
2019-02-25T15:49:26.075Z,25.42
2019-02-25T15:51:53.483Z,25.38
2019-02-25T15:54:20.546Z,24.11
2019-02-25T15:56:47.129Z,22.73
2019-02-25T15:59:13.694Z,21.20
2019-02-25T16:01:40.539Z,19.96
2019-02-25T16:04:09.154Z,19.43
2019-02-25T16:06:37.519Z,18.78
2019-02-25T16:09:06.307Z,18.58
2019-02-25T16:11:39.182Z,18.34
2019-02-25T16:14:07.032Z,17.88
2019-02-25T16:16:34.569Z,17.63
2019-02-25T16:19:01.120Z,17.51
2019-02-25T16:21:27.665Z,17.32
2019-02-25T16:23:54.230Z,17.08
2019-02-25T16:26:20.785Z,17.09
2019-02-25T16:28:47.466Z,16.92
2019-02-25T16:31:14.838Z,16.86
2019-02-25T16:33:41.786Z,16.74
2019-02-25T16:36:09.958Z,17.00
2019-02-25T16:38:36.622Z,17.60
2019-02-25T16:41:05.505Z,17.74
2019-02-25T16:43:31.652Z,17.34
2019-02-25T16:45:59.518Z,16.57
2019-02-25T16:48:28.183Z,15.96
2019-02-25T16:50:55.347Z,15.49
2019-02-25T16:53:21.914Z,15.11
2019-02-25T16:55:49.226Z,14.94
2019-02-25T16:58:16.926Z,14.79
2019-02-25T17:00:43.694Z,14.64
2019-02-25T17:03:11.166Z,14.42
2019-02-25T17:05:40.271Z,14.18
2019-02-25T17:08:10.335Z,13.74
2019-02-25T17:10:38.227Z,13.57
2019-02-25T17:13:05.842Z,13.36
2019-02-25T17:15:33.641Z,13.19
2019-02-25T17:18:00.716Z,13.06
2019-02-25T17:20:28.554Z,13.21
2019-02-25T17:22:55.346Z,13.07
2019-02-25T17:25:21.915Z,12.98
2019-02-25T17:27:48.529Z,12.75
2019-02-25T17:30:17.521Z,12.79
2019-02-25T17:32:46.635Z,12.43
2019-02-25T17:35:13.957Z,12.31
2019-02-25T17:37:40.799Z,12.19
2019-02-25T17:40:09.099Z,12.05
2019-02-25T17:42:37.041Z,12.02
2019-02-25T17:45:07.192Z,11.92
2019-02-25T17:47:35.169Z,11.98
2019-02-25T17:50:06.439Z,11.83
2019-02-25T17:52:33.793Z,11.81
2019-02-25T17:55:01.496Z,11.54
2019-02-25T17:57:29.800Z,11.49
2019-02-25T17:59:57.663Z,11.38
2019-02-25T18:02:40.199Z,11.44
2019-02-25T18:05:06.819Z,11.35
2019-02-25T18:07:33.426Z,11.23
2019-02-25T18:10:01.117Z,11.13
2019-02-25T18:12:29.750Z,11.11
2019-02-25T18:14:58.975Z,10.87
2019-02-25T18:17:25.984Z,10.69
2019-02-25T18:19:54.411Z,10.49
2019-02-25T18:22:21.066Z,10.39
2019-02-25T18:24:48.086Z,10.26
2019-02-25T18:27:15.047Z,9.79
2019-02-25T18:29:44.060Z,10.22
2019-02-25T18:32:11.830Z,10.56
2019-02-25T18:34:38.825Z,10.55
2019-02-25T18:37:07.051Z,10.46
2019-02-25T18:39:33.858Z,10.42
2019-02-25T18:42:01.005Z,10.38
2019-02-25T18:44:27.551Z,10.23
2019-02-25T18:46:54.102Z,10.15
2019-02-25T18:49:20.970Z,10.06
2019-02-25T18:51:47.902Z,10.01
2019-02-25T18:54:16.415Z,9.84
2019-02-25T18:56:44.198Z,9.71
2019-02-25T18:59:15.371Z,9.62
2019-02-25T19:01:39.713Z,9.52
2019-02-25T19:04:07.335Z,9.65
2019-02-25T19:06:34.687Z,9.58
2019-02-25T19:09:01.255Z,9.35
2019-02-25T19:11:28.304Z,9.19
2019-02-25T19:13:56.632Z,9.24
2019-02-25T19:16:24.341Z,9.11
2019-02-25T19:18:50.961Z,9.01
2019-02-25T19:21:17.543Z,8.98
2019-02-25T19:23:46.284Z,8.94
2019-02-25T19:26:14.804Z,9.01
2019-02-25T19:28:44.082Z,8.88
2019-02-25T19:31:09.491Z,8.82
2019-02-25T19:33:37.053Z,8.73
2019-02-25T19:36:07.086Z,8.67
2019-02-25T19:38:36.259Z,8.51
2019-02-25T19:41:02.734Z,8.46
2019-02-25T19:43:29.730Z,8.43
2019-02-25T19:45:57.193Z,8.43
2019-02-25T19:48:28.691Z,8.42
2019-02-25T19:50:54.613Z,8.45
2019-02-25T19:53:22.585Z,8.53
2019-02-25T19:55:51.110Z,8.38
2019-02-25T19:58:17.579Z,8.22
2019-02-25T20:00:44.542Z,8.12
2019-02-25T20:03:13.387Z,7.97
2019-02-25T20:05:43.359Z,7.85
2019-02-25T20:08:08.505Z,7.75
2019-02-25T20:10:35.064Z,7.75
2019-02-25T20:13:08.746Z,7.68
2019-02-25T20:15:37.669Z,7.60
2019-02-25T20:18:03.952Z,7.78
2019-02-25T20:20:34.652Z,7.68
2019-02-25T20:23:03.849Z,7.59
2019-02-25T20:25:30.568Z,7.55
2019-02-25T20:27:59.826Z,7.41
2019-02-25T20:30:28.218Z,7.27
2019-02-25T20:32:54.817Z,7.30
2019-02-25T20:35:22.207Z,7.43
2019-02-25T20:37:53.135Z,7.61
2019-02-25T20:40:21.248Z,7.99
2019-02-25T20:42:50.889Z,7.65
2019-02-25T20:45:21.038Z,7.44
2019-02-25T20:47:48.358Z,7.26
2019-02-25T20:50:16.774Z,7.61
2019-02-25T20:52:44.695Z,7.61
2019-02-25T20:55:13.315Z,7.37
2019-02-25T20:57:40.868Z,7.11
2019-02-25T21:00:12.784Z,7.04
2019-02-25T21:02:39.402Z,7.05
2019-02-25T21:05:07.784Z,7.28
2019-02-25T21:07:38.023Z,7.47
2019-02-25T21:10:07.271Z,7.46
2019-02-25T21:12:32.563Z,7.44
2019-02-25T21:14:59.131Z,7.38
2019-02-25T21:17:25.679Z,7.15
2019-02-25T21:19:52.665Z,7.19
2019-02-25T21:22:23.167Z,7.03
2019-02-25T21:24:51.822Z,6.82
2019-02-25T21:27:16.409Z,6.77
2019-02-25T21:29:42.998Z,6.60
2019-02-25T21:32:12.774Z,6.65
2019-02-25T21:34:38.448Z,4.92
2019-02-25T21:37:05.011Z,6.63
2019-02-25T21:39:32.628Z,6.45
2019-02-25T21:42:00.083Z,6.31
2019-02-25T21:44:28.812Z,6.24
2019-02-25T21:46:56.248Z,6.46
2019-02-25T21:49:26.796Z,6.30
2019-02-25T21:51:52.455Z,6.36
2019-02-25T21:54:19.028Z,6.58
2019-02-25T21:56:45.607Z,6.50
2019-02-25T21:59:12.781Z,6.34
2019-02-25T22:01:42.535Z,5.86
2019-02-25T22:04:11.234Z,5.86
2019-02-25T22:06:37.614Z,5.67
2019-02-25T22:09:08.648Z,5.50
2019-02-25T22:11:35.228Z,5.34
2019-02-25T22:14:02.113Z,5.23
2019-02-25T22:16:30.055Z,5.64
2019-02-25T22:18:58.769Z,5.56
2019-02-25T22:21:25.875Z,5.43
2019-02-25T22:23:56.140Z,5.27
2019-02-25T22:26:24.484Z,5.36
2019-02-25T22:28:50.999Z,5.19
2019-02-25T22:31:18.192Z,5.19
2019-02-25T22:33:44.812Z,5.09
2019-02-25T22:36:11.410Z,5.09
2019-02-25T22:38:37.992Z,5.09
2019-02-25T22:41:04.569Z,4.92
2019-02-25T22:43:31.142Z,4.81
2019-02-25T22:45:59.945Z,4.71
2019-02-25T22:48:26.213Z,4.69
2019-02-25T22:50:55.355Z,4.58
2019-02-25T22:53:21.260Z,4.43
2019-02-25T22:55:49.815Z,4.62
2019-02-25T22:58:17.079Z,4.51
2019-02-25T23:00:49.572Z,4.31
2019-02-25T23:03:19.761Z,4.25
2019-02-25T23:05:46.005Z,4.27
2019-02-25T23:08:15.330Z,4.37
2019-02-25T23:10:42.540Z,4.41
2019-02-25T23:13:10.272Z,4.49
2019-02-25T23:15:36.839Z,4.57
2019-02-25T23:18:05.544Z,4.59
2019-02-25T23:20:33.913Z,4.53
2019-02-25T23:23:03.660Z,4.43
2019-02-25T23:25:28.794Z,4.40
2019-02-25T23:27:56.190Z,4.55
2019-02-25T23:30:24.002Z,4.78
2019-02-25T23:32:52.370Z,4.48
2019-02-25T23:35:20.853Z,4.24
2019-02-25T23:37:49.607Z,4.08
2019-02-25T23:40:16.778Z,4.12
2019-02-25T23:42:44.346Z,4.09
2019-02-25T23:45:13.009Z,4.17
2019-02-25T23:47:40.473Z,4.25
2019-02-25T23:50:08.703Z,4.28
2019-02-25T23:52:37.474Z,4.43
2019-02-25T23:55:05.161Z,4.18
2019-02-25T23:57:32.694Z,4.15
2019-02-25T23:59:59.384Z,4.17
